Time;durP1;ratioP1;P1;durP2;ratioP2;P2;SDS_P1;SDS_P2;PMS_P1;PMS_P2;Temp;Humidity;BMP_temperature;BMP_pressure;BME280_temperature;BME280_humidity;BME280_pressure;Samples;Min_cycle;Max_cycle;Signal;HPM_P1;HPM_P2
2021/06/01 00:01:23;;;;;;;500.13;365.23;;;;;;;;;;4995208;28;20027;-77
2021/06/01 00:03:49;;;;;;;509.33;370.58;;;;;;;;;;4977930;28;20096;-78
2021/06/01 00:06:15;;;;;;;501.13;367.17;;;;;;;;;;4993772;28;20034;-79
2021/06/01 00:08:42;;;;;;;502.20;366.27;;;;;;;;;;4977219;28;20075;-78
2021/06/01 00:11:08;;;;;;;504.15;370.67;;;;;;;;;;4981095;28;20029;-77
2021/06/01 00:13:35;;;;;;;504.73;367.15;;;;;;;;;;4987794;28;20041;-77
2021/06/01 00:16:01;;;;;;;505.05;374.38;;;;;;;;;;4975007;28;20524;-76
2021/06/01 00:18:27;;;;;;;504.02;368.70;;;;;;;;;;4981760;28;20058;-79
2021/06/01 00:20:53;;;;;;;508.88;375.52;;;;;;;;;;4989317;28;20078;-78
2021/06/01 00:23:19;;;;;;;511.40;378.08;;;;;;;;;;4981113;28;20026;-75
2021/06/01 00:25:45;;;;;;;512.08;369.58;;;;;;;;;;4991515;28;20034;-77
2021/06/01 00:28:11;;;;;;;509.02;367.65;;;;;;;;;;4984678;28;20029;-76
2021/06/01 00:30:37;;;;;;;513.15;373.85;;;;;;;;;;4983072;28;20485;-77
2021/06/01 00:33:03;;;;;;;512.28;370.15;;;;;;;;;;4976549;28;20021;-77
2021/06/01 00:35:33;;;;;;;513.50;364.08;;;;;;;;;;4986306;28;20021;-77
2021/06/01 00:37:59;;;;;;;510.77;366.10;;;;;;;;;;4978613;28;20065;-79
2021/06/01 00:40:25;;;;;;;505.38;362.33;;;;;;;;;;4980223;28;20063;-77
2021/06/01 00:42:51;;;;;;;507.83;362.67;;;;;;;;;;4979186;28;20031;-78
2021/06/01 00:45:20;;;;;;;513.22;373.85;;;;;;;;;;4977889;28;20099;-77
2021/06/01 00:47:46;;;;;;;512.83;366.33;;;;;;;;;;4977914;28;20460;-78
2021/06/01 00:50:12;;;;;;;516.28;375.55;;;;;;;;;;4982160;28;20050;-78
2021/06/01 00:52:38;;;;;;;714.22;521.63;;;;;;;;;;4979096;28;20352;-77
2021/06/01 00:55:06;;;;;;;529.55;374.23;;;;;;;;;;4979620;28;20730;-77
2021/06/01 00:57:32;;;;;;;552.53;401.55;;;;;;;;;;4992127;28;20111;-77
2021/06/01 00:59:59;;;;;;;620.15;447.90;;;;;;;;;;4977065;28;20031;-76
2021/06/01 01:02:25;;;;;;;632.72;452.05;;;;;;;;;;4976592;28;20027;-78
2021/06/01 01:04:51;;;;;;;653.42;459.08;;;;;;;;;;4974823;28;20030;-78
2021/06/01 01:07:23;;;;;;;613.80;444.65;;;;;;;;;;4995456;28;20101;-77
2021/06/01 01:09:50;;;;;;;641.30;459.67;;;;;;;;;;4985271;28;20046;-77
2021/06/01 01:12:20;;;;;;;635.72;462.30;;;;;;;;;;4980536;28;20034;-77
2021/06/01 01:14:59;;;;;;;673.47;488.95;;;;;;;;;;4977557;28;20085;-78
2021/06/01 01:17:59;;;;;;;671.80;491.38;;;;;;;;;;4995760;28;20057;-78
2021/06/01 01:20:39;;;;;;;638.47;461.15;;;;;;;;;;5022557;28;20061;-77
2021/06/01 01:23:05;;;;;;;;;;;;;;;;;;4978412;28;20034;-78
2021/06/01 01:25:39;;;;;;;643.88;454.35;;;;;;;;;;4982551;28;19924;-78
2021/06/01 01:28:05;;;;;;;631.28;451.05;;;;;;;;;;4983904;28;20367;-77
2021/06/01 01:30:44;;;;;;;619.75;438.10;;;;;;;;;;4988710;28;20053;-77
2021/06/01 01:33:16;;;;;;;656.67;467.40;;;;;;;;;;4997029;28;20018;-79
2021/06/01 01:35:47;;;;;;;646.13;474.15;;;;;;;;;;5000764;28;20029;-77
2021/06/01 01:38:13;;;;;;;645.72;458.88;;;;;;;;;;4981662;28;20018;-78
2021/06/01 01:40:40;;;;;;;653.72;473.20;;;;;;;;;;4995351;28;20018;-77
2021/06/01 01:43:10;;;;;;;649.03;475.35;;;;;;;;;;4977636;28;20026;-79
2021/06/01 01:45:40;;;;;;;650.10;468.88;;;;;;;;;;5003853;28;20038;-77
2021/06/01 01:50:58;;;;;;;659.75;471.67;;;;;;;;;;4994010;28;20107;-78
2021/06/01 01:53:24;;;;;;;659.03;469.45;;;;;;;;;;5002796;28;20045;-77
2021/06/01 01:55:53;;;;;;;671.72;483.90;;;;;;;;;;4982935;28;20117;-77
2021/06/01 01:58:19;;;;;;;695.58;504.75;;;;;;;;;;4981957;28;20064;-78
2021/06/01 02:00:46;;;;;;;662.83;475.27;;;;;;;;;;4981884;28;20067;-76
2021/06/01 02:03:12;;;;;;;676.08;487.15;;;;;;;;;;4978733;28;20602;-77
2021/06/01 02:05:39;;;;;;;693.00;504.13;;;;;;;;;;4982507;28;20034;-76
2021/06/01 02:08:08;;;;;;;690.20;500.88;;;;;;;;;;4997840;28;20022;-77
2021/06/01 02:10:34;;;;;;;684.42;493.60;;;;;;;;;;4983066;28;20061;-77
2021/06/01 02:13:01;;;;;;;683.38;487.00;;;;;;;;;;4982596;28;20057;-76
2021/06/01 02:15:27;;;;;;;677.60;491.35;;;;;;;;;;4979831;28;20045;-78
2021/06/01 02:17:54;;;;;;;680.85;499.88;;;;;;;;;;4980174;28;20048;-78
2021/06/01 02:20:20;;;;;;;674.40;492.98;;;;;;;;;;4977115;28;20450;-78
2021/06/01 02:25:22;;;;;;;661.72;479.15;;;;;;;;;;4992634;28;20053;-75
2021/06/01 02:27:58;;;;;;;655.75;479.70;;;;;;;;;;4989230;28;20029;-78
2021/06/01 02:30:28;;;;;;;669.85;481.45;;;;;;;;;;4982792;28;20027;-77
2021/06/01 02:32:57;;;;;;;658.97;467.35;;;;;;;;;;4980460;28;20433;-79
2021/06/01 02:35:26;;;;;;;661.63;472.73;;;;;;;;;;4978831;28;20471;-76
2021/06/01 02:37:53;;;;;;;662.55;472.58;;;;;;;;;;4982881;28;20022;-76
2021/06/01 02:40:20;;;;;;;680.25;476.80;;;;;;;;;;4977157;28;20026;-78
2021/06/01 02:42:46;;;;;;;708.38;503.90;;;;;;;;;;4981223;28;20034;-77
2021/06/01 02:45:16;;;;;;;703.25;506.25;;;;;;;;;;4982079;28;20052;-76
2021/06/01 02:47:42;;;;;;;688.50;486.58;;;;;;;;;;4998148;28;20045;-77
2021/06/01 02:50:10;;;;;;;696.08;497.42;;;;;;;;;;4983485;28;20030;-79
2021/06/01 02:52:37;;;;;;;675.78;486.05;;;;;;;;;;4975603;28;20315;-76
2021/06/01 02:55:07;;;;;;;662.72;466.70;;;;;;;;;;4983493;28;20129;-77
2021/06/01 02:57:34;;;;;;;725.38;525.60;;;;;;;;;;4984132;28;20091;-77
2021/06/01 03:00:00;;;;;;;662.40;469.40;;;;;;;;;;4997576;28;20520;-78
2021/06/01 03:02:27;;;;;;;635.20;459.48;;;;;;;;;;4995973;28;20436;-76
2021/06/01 03:04:54;;;;;;;649.45;460.20;;;;;;;;;;4980427;28;20038;-77
2021/06/01 03:07:20;;;;;;;617.45;431.50;;;;;;;;;;4998724;28;20041;-76
2021/06/01 03:09:46;;;;;;;615.20;440.15;;;;;;;;;;4981540;28;20026;-77
2021/06/01 03:12:38;;;;;;;614.00;446.15;;;;;;;;;;4981753;28;20036;-79
2021/06/01 03:15:05;;;;;;;649.72;455.15;;;;;;;;;;4992833;28;20065;-78
2021/06/01 03:17:34;;;;;;;625.08;440.35;;;;;;;;;;4977144;28;20033;-77
2021/06/01 03:20:00;;;;;;;609.38;433.92;;;;;;;;;;4979307;28;20022;-77
2021/06/01 03:22:26;;;;;;;587.33;406.67;;;;;;;;;;4978185;28;20444;-80
2021/06/01 03:24:52;;;;;;;594.90;411.70;;;;;;;;;;4996618;28;20034;-78
2021/06/01 03:27:18;;;;;;;597.15;418.50;;;;;;;;;;4982294;28;20037;-76
2021/06/01 03:29:44;;;;;;;593.47;415.83;;;;;;;;;;4982253;28;20023;-76
2021/06/01 03:32:10;;;;;;;587.63;410.75;;;;;;;;;;4978316;28;20511;-75
2021/06/01 03:34:36;;;;;;;600.33;424.20;;;;;;;;;;4974814;28;20075;-76
2021/06/01 03:37:02;;;;;;;606.22;430.42;;;;;;;;;;4979343;28;20022;-76
2021/06/01 03:39:31;;;;;;;617.13;429.27;;;;;;;;;;4977463;28;20114;-77
2021/06/01 03:41:57;;;;;;;618.05;434.55;;;;;;;;;;4978227;28;20073;-77
2021/06/01 03:44:23;;;;;;;599.95;406.05;;;;;;;;;;4980354;28;20057;-77
2021/06/01 03:46:48;;;;;;;600.40;424.05;;;;;;;;;;4995663;28;20402;-77
2021/06/01 03:49:14;;;;;;;596.05;416.85;;;;;;;;;;4987503;28;20022;-77
2021/06/01 03:51:40;;;;;;;636.47;443.70;;;;;;;;;;4997399;28;20037;-77
2021/06/01 03:54:06;;;;;;;621.08;443.42;;;;;;;;;;4981038;28;20090;-77
2021/06/01 03:56:36;;;;;;;588.50;413.17;;;;;;;;;;4982693;28;20026;-76
2021/06/01 03:59:02;;;;;;;587.45;413.88;;;;;;;;;;4985958;28;20026;-77
2021/06/01 04:01:28;;;;;;;561.50;388.38;;;;;;;;;;4982219;28;20091;-76
2021/06/01 04:03:54;;;;;;;556.63;383.10;;;;;;;;;;4978818;28;20114;-79
2021/06/01 04:06:20;;;;;;;557.47;385.40;;;;;;;;;;4977545;28;20361;-77
2021/06/01 04:08:46;;;;;;;542.10;372.10;;;;;;;;;;4978738;28;20034;-77
2021/06/01 04:11:12;;;;;;;543.40;374.00;;;;;;;;;;4991752;28;20022;-76
2021/06/01 04:13:38;;;;;;;543.20;375.23;;;;;;;;;;4976336;28;20063;-76
2021/06/01 04:16:04;;;;;;;546.10;380.75;;;;;;;;;;4972460;28;20450;-77
2021/06/01 04:18:30;;;;;;;539.08;375.92;;;;;;;;;;4980458;28;20030;-76
2021/06/01 04:20:56;;;;;;;543.72;386.30;;;;;;;;;;4979041;28;20026;-76
2021/06/01 04:23:22;;;;;;;541.88;376.63;;;;;;;;;;4978987;28;20086;-76
2021/06/01 04:25:48;;;;;;;545.78;382.80;;;;;;;;;;4976605;28;20038;-77
2021/06/01 04:28:14;;;;;;;550.20;381.70;;;;;;;;;;4978792;28;20204;-76
2021/06/01 04:30:44;;;;;;;543.15;381.02;;;;;;;;;;4995458;28;20492;-76
2021/06/01 04:33:10;;;;;;;551.45;381.63;;;;;;;;;;4986215;28;20041;-78
2021/06/01 04:35:36;;;;;;;547.97;387.95;;;;;;;;;;4978469;28;20497;-77
2021/06/01 04:38:02;;;;;;;552.03;387.80;;;;;;;;;;4998113;28;20022;-78
2021/06/01 04:40:28;;;;;;;547.88;380.60;;;;;;;;;;4972570;28;20030;-77
2021/06/01 04:42:54;;;;;;;544.58;375.85;;;;;;;;;;4975713;28;20424;-76
2021/06/01 04:45:20;;;;;;;541.63;384.52;;;;;;;;;;4980404;28;20042;-77
2021/06/01 04:47:46;;;;;;;548.78;384.10;;;;;;;;;;4977694;28;20107;-77
2021/06/01 04:50:12;;;;;;;546.03;386.02;;;;;;;;;;4986463;28;20041;-76
2021/06/01 04:52:38;;;;;;;550.83;391.67;;;;;;;;;;4996510;28;20038;-78
2021/06/01 04:55:05;;;;;;;547.63;390.00;;;;;;;;;;4980134;28;20026;-77
2021/06/01 04:57:31;;;;;;;532.95;369.30;;;;;;;;;;4991249;28;20038;-77
2021/06/01 04:59:56;;;;;;;542.50;378.63;;;;;;;;;;4984016;28;20026;-76
2021/06/01 05:02:22;;;;;;;548.08;391.48;;;;;;;;;;4995266;28;20026;-76
2021/06/01 05:04:48;;;;;;;539.25;385.00;;;;;;;;;;4996533;28;20018;-76
2021/06/01 05:07:16;;;;;;;494.15;359.02;;;;;;;;;;4995786;28;20019;-76
2021/06/01 05:09:42;;;;;;;490.70;360.45;;;;;;;;;;4996073;28;20026;-77
2021/06/01 05:12:08;;;;;;;489.83;355.95;;;;;;;;;;4984296;28;20387;-78
2021/06/01 05:14:34;;;;;;;486.30;351.25;;;;;;;;;;4978647;28;20350;-78
2021/06/01 05:17:00;;;;;;;488.20;356.20;;;;;;;;;;4991398;28;20440;-76
2021/06/01 05:19:26;;;;;;;493.63;370.92;;;;;;;;;;4999410;28;20036;-76
2021/06/01 05:21:52;;;;;;;490.40;356.60;;;;;;;;;;4981759;28;20473;-78
2021/06/01 05:24:18;;;;;;;491.05;360.80;;;;;;;;;;4983838;28;20026;-76
2021/06/01 05:26:44;;;;;;;500.05;371.75;;;;;;;;;;4986222;28;20450;-77
2021/06/01 05:29:10;;;;;;;490.48;362.58;;;;;;;;;;4997213;28;20079;-76
2021/06/01 05:31:47;;;;;;;495.52;368.50;;;;;;;;;;4988255;28;20030;-79
2021/06/01 05:34:13;;;;;;;494.48;363.17;;;;;;;;;;4996994;28;20018;-77
2021/06/01 05:36:40;;;;;;;490.88;362.58;;;;;;;;;;4984867;28;20051;-77
2021/06/01 05:39:07;;;;;;;494.00;368.48;;;;;;;;;;4981755;28;20022;-76
2021/06/01 05:41:33;;;;;;;492.40;362.27;;;;;;;;;;4995170;28;20027;-77
2021/06/01 05:43:59;;;;;;;505.75;375.15;;;;;;;;;;4983686;28;20400;-77
2021/06/01 05:46:26;;;;;;;495.77;366.50;;;;;;;;;;4985987;28;20046;-76
2021/06/01 05:48:52;;;;;;;495.70;367.13;;;;;;;;;;4976864;28;20394;-77
2021/06/01 05:51:20;;;;;;;496.77;369.50;;;;;;;;;;4976763;28;21027;-76
2021/06/01 05:53:46;;;;;;;497.95;370.20;;;;;;;;;;4981207;28;20021;-77
2021/06/01 05:56:12;;;;;;;501.60;380.25;;;;;;;;;;5001744;28;20022;-76
2021/06/01 05:58:38;;;;;;;501.05;382.77;;;;;;;;;;5001154;28;20056;-76
2021/06/01 06:01:04;;;;;;;499.95;378.65;;;;;;;;;;4982101;28;20050;-77
2021/06/01 06:03:30;;;;;;;501.33;380.70;;;;;;;;;;4987302;28;20021;-78
2021/06/01 06:05:56;;;;;;;506.05;385.98;;;;;;;;;;4984656;28;20426;-77
2021/06/01 06:08:22;;;;;;;506.70;390.55;;;;;;;;;;4979545;28;20105;-76
2021/06/01 06:10:49;;;;;;;506.15;387.25;;;;;;;;;;4981202;28;20458;-76
2021/06/01 06:13:16;;;;;;;508.00;390.95;;;;;;;;;;4985853;28;20700;-78
2021/06/01 06:15:43;;;;;;;506.70;388.73;;;;;;;;;;4998943;28;20042;-77
2021/06/01 06:18:23;;;;;;;507.60;392.02;;;;;;;;;;4989667;28;20025;-77
2021/06/01 06:20:49;;;;;;;;;;;;;;;;;;4982525;28;20366;-77
2021/06/01 06:23:15;;;;;;;500.95;374.10;;;;;;;;;;4976945;28;19914;-77
2021/06/01 06:25:41;;;;;;;508.27;393.20;;;;;;;;;;4979313;28;20372;-79
2021/06/01 06:28:07;;;;;;;506.55;394.83;;;;;;;;;;4975870;28;20026;-77
2021/06/01 06:30:33;;;;;;;509.52;401.83;;;;;;;;;;4994869;28;20046;-75
2021/06/01 06:32:59;;;;;;;510.38;405.17;;;;;;;;;;4985902;28;20057;-78
2021/06/01 06:35:25;;;;;;;511.35;407.83;;;;;;;;;;4985912;28;20038;-78
2021/06/01 06:37:51;;;;;;;511.88;411.33;;;;;;;;;;4995716;28;20026;-77
2021/06/01 06:40:17;;;;;;;511.65;415.52;;;;;;;;;;4980721;28;20340;-77
2021/06/01 06:42:43;;;;;;;515.33;419.13;;;;;;;;;;4979075;28;20042;-75
2021/06/01 06:45:13;;;;;;;514.60;419.67;;;;;;;;;;4998331;28;20067;-77
2021/06/01 06:50:06;;;;;;;520.45;419.20;;;;;;;;;;4998182;28;20038;-77
2021/06/01 06:52:32;;;;;;;524.53;428.25;;;;;;;;;;4987787;28;20010;-78
2021/06/01 06:54:58;;;;;;;518.33;422.20;;;;;;;;;;4979072;28;20452;-76
2021/06/01 06:57:24;;;;;;;566.45;460.55;;;;;;;;;;4985399;28;20370;-78
2021/06/01 06:59:50;;;;;;;565.05;462.00;;;;;;;;;;4980980;28;22040;-76
2021/06/01 07:02:16;;;;;;;547.10;451.02;;;;;;;;;;4996517;28;20875;-76
2021/06/01 07:04:42;;;;;;;546.78;450.25;;;;;;;;;;4978637;28;20203;-77
2021/06/01 07:07:08;;;;;;;548.42;450.88;;;;;;;;;;4999306;28;20108;-76
2021/06/01 07:09:38;;;;;;;543.72;444.13;;;;;;;;;;4975797;28;20022;-78
2021/06/01 07:12:04;;;;;;;548.70;455.00;;;;;;;;;;4986830;28;20010;-76
2021/06/01 07:14:45;;;;;;;552.53;462.52;;;;;;;;;;4976021;28;20030;-77
2021/06/01 07:17:11;;;;;;;545.67;457.77;;;;;;;;;;4997507;28;20029;-79
2021/06/01 07:19:37;;;;;;;549.63;464.92;;;;;;;;;;4981852;28;20026;-77
2021/06/01 07:22:03;;;;;;;545.10;462.00;;;;;;;;;;4982089;28;20057;-78
2021/06/01 07:24:30;;;;;;;540.75;462.42;;;;;;;;;;4985327;28;20440;-77
2021/06/01 07:26:56;;;;;;;558.38;478.13;;;;;;;;;;4981566;28;20467;-77
2021/06/01 07:29:26;;;;;;;543.67;462.70;;;;;;;;;;4986401;28;20025;-79
2021/06/01 07:31:54;;;;;;;537.60;460.98;;;;;;;;;;5001380;28;20033;-77
2021/06/01 07:34:20;;;;;;;535.30;455.40;;;;;;;;;;4981661;28;20033;-77
2021/06/01 07:36:46;;;;;;;544.83;466.83;;;;;;;;;;5001732;28;20026;-77
2021/06/01 07:39:12;;;;;;;540.47;466.92;;;;;;;;;;4995716;28;20537;-81
2021/06/01 07:41:38;;;;;;;537.90;468.75;;;;;;;;;;4987834;28;20545;-77
2021/06/01 07:44:05;;;;;;;549.40;479.00;;;;;;;;;;4999591;28;20095;-76
2021/06/01 07:46:31;;;;;;;543.88;483.77;;;;;;;;;;4978861;28;20037;-78
2021/06/01 07:48:58;;;;;;;539.47;478.85;;;;;;;;;;4986864;28;20576;-76
2021/06/01 07:51:31;;;;;;;536.53;474.13;;;;;;;;;;4988383;28;20040;-79
2021/06/01 07:54:03;;;;;;;541.47;478.95;;;;;;;;;;4979336;28;20117;-77
2021/06/01 07:56:29;;;;;;;538.22;471.05;;;;;;;;;;4982454;28;20116;-77
2021/06/01 07:58:55;;;;;;;550.13;489.83;;;;;;;;;;4999900;28;20101;-77
2021/06/01 08:01:21;;;;;;;548.10;488.08;;;;;;;;;;4975029;28;20163;-79
2021/06/01 08:03:47;;;;;;;546.72;486.67;;;;;;;;;;4981552;28;20026;-77
2021/06/01 08:06:13;;;;;;;547.75;487.95;;;;;;;;;;4983507;28;20121;-79
2021/06/01 08:08:39;;;;;;;550.20;489.63;;;;;;;;;;4981576;28;20116;-78
2021/06/01 08:11:06;;;;;;;563.35;502.10;;;;;;;;;;4982274;28;20030;-79
2021/06/01 08:13:32;;;;;;;554.35;494.05;;;;;;;;;;5005942;28;20018;-78
2021/06/01 08:15:59;;;;;;;552.60;492.42;;;;;;;;;;4977306;28;20073;-79
2021/06/01 08:18:27;;;;;;;556.20;495.65;;;;;;;;;;4973451;28;20415;-78
2021/06/01 08:23:35;;;;;;;558.45;497.98;;;;;;;;;;4980149;28;20065;-78
2021/06/01 08:26:01;;;;;;;565.40;505.00;;;;;;;;;;4980191;28;20036;-78
2021/06/01 08:28:27;;;;;;;564.35;504.15;;;;;;;;;;4978328;28;20395;-76
2021/06/01 08:30:53;;;;;;;569.88;509.42;;;;;;;;;;4983300;28;20460;-77
2021/06/01 08:33:19;;;;;;;571.78;511.15;;;;;;;;;;4975167;28;20054;-79
2021/06/01 08:35:46;;;;;;;568.45;507.80;;;;;;;;;;4978353;28;20025;-77
2021/06/01 08:38:12;;;;;;;569.53;509.08;;;;;;;;;;4979184;28;20033;-76
2021/06/01 08:40:39;;;;;;;569.03;508.45;;;;;;;;;;4983532;28;20062;-78
2021/06/01 08:43:27;;;;;;;568.42;508.15;;;;;;;;;;4979109;28;20014;-77
2021/06/01 08:45:54;;;;;;;566.83;506.67;;;;;;;;;;4985271;28;20155;-76
2021/06/01 08:48:20;;;;;;;580.72;519.97;;;;;;;;;;4987025;28;20114;-78
2021/06/01 08:50:47;;;;;;;579.53;518.78;;;;;;;;;;4985958;28;20023;-78
2021/06/01 08:53:14;;;;;;;584.70;524.30;;;;;;;;;;4982893;28;20034;-76
2021/06/01 08:55:40;;;;;;;594.17;533.30;;;;;;;;;;4980604;28;20038;-77
2021/06/01 08:58:06;;;;;;;601.40;540.17;;;;;;;;;;4986199;28;20068;-77
2021/06/01 09:00:32;;;;;;;610.90;549.63;;;;;;;;;;4979029;28;20030;-79
2021/06/01 09:03:12;;;;;;;601.00;540.13;;;;;;;;;;4984148;28;20046;-79
2021/06/01 09:06:00;;;;;;;593.92;533.38;;;;;;;;;;4979167;28;20031;-76
2021/06/01 09:08:37;;;;;;;594.40;533.88;;;;;;;;;;4982060;28;20035;-76
2021/06/01 09:11:40;;;;;;;606.15;545.80;;;;;;;;;;4979964;28;20026;-81
2021/06/01 09:22:11;;;;;;;656.72;593.38;;;;;;;;;;4997408;28;20065;-77
2021/06/01 09:24:37;;;;;;;664.58;601.60;;;;;;;;;;4986844;28;20022;-80
2021/06/01 09:27:38;;;;;;;674.60;611.25;;;;;;;;;;4994417;28;20045;-77
2021/06/01 09:29:55;;;;;;;685.70;622.22;;;;;;;;;;5003853;28;20098;-78
2021/06/01 09:32:22;;;;;;;710.47;646.60;;;;;;;;;;4983002;28;20030;-81
2021/06/01 09:34:52;;;;;;;713.83;649.90;;;;;;;;;;4995761;28;21745;-78
2021/06/01 09:37:19;;;;;;;720.97;656.88;;;;;;;;;;5003789;28;20018;-79
2021/06/01 09:39:46;;;;;;;698.97;635.78;;;;;;;;;;5000850;28;20045;-79
2021/06/01 09:42:28;;;;;;;701.28;638.63;;;;;;;;;;4981183;28;20480;-82
2021/06/01 09:45:08;;;;;;;700.70;638.35;;;;;;;;;;4987489;28;20030;-77
2021/06/01 09:47:42;;;;;;;706.38;643.63;;;;;;;;;;4984988;28;20026;-79
2021/06/01 09:50:14;;;;;;;676.65;614.92;;;;;;;;;;5001822;28;20853;-77
2021/06/01 09:52:48;;;;;;;706.55;642.83;;;;;;;;;;5003850;28;20444;-77
2021/06/01 09:55:15;;;;;;;702.13;639.40;;;;;;;;;;4997199;28;20033;-78
2021/06/01 09:57:46;;;;;;;738.70;674.40;;;;;;;;;;4995950;28;20460;-78
2021/06/01 10:00:13;;;;;;;724.17;660.75;;;;;;;;;;4986946;28;20034;-78
2021/06/01 10:02:39;;;;;;;748.00;682.55;;;;;;;;;;4998441;28;20025;-77
2021/06/01 10:05:13;;;;;;;743.60;679.13;;;;;;;;;;4995107;28;20046;-76
2021/06/01 10:07:42;;;;;;;763.80;697.92;;;;;;;;;;4995588;28;20014;-77
2021/06/01 10:10:19;;;;;;;729.80;666.38;;;;;;;;;;4987327;28;20034;-76
2021/06/01 10:12:45;;;;;;;729.95;667.33;;;;;;;;;;4981720;28;20101;-77
2021/06/01 10:15:13;;;;;;;743.67;680.40;;;;;;;;;;4981978;28;20046;-78
2021/06/01 10:17:39;;;;;;;763.50;699.25;;;;;;;;;;4977742;28;20025;-83
2021/06/01 10:20:06;;;;;;;762.65;699.03;;;;;;;;;;4974216;28;20019;-78
2021/06/01 10:22:32;;;;;;;779.40;715.60;;;;;;;;;;4975279;28;20038;-77
2021/06/01 10:24:59;;;;;;;784.47;720.83;;;;;;;;;;4983841;28;20022;-78
2021/06/01 10:27:27;;;;;;;801.20;736.95;;;;;;;;;;4977665;28;20035;-79
2021/06/01 10:29:53;;;;;;;781.65;718.30;;;;;;;;;;4985302;28;20025;-78
2021/06/01 10:32:20;;;;;;;1086.43;997.10;;;;;;;;;;4979557;28;20027;-77
2021/06/01 10:34:46;;;;;;;732.90;670.65;;;;;;;;;;4973713;28;20025;-82
2021/06/01 10:43:47;;;;;;;760.47;697.65;;;;;;;;;;4976046;28;20426;-79
2021/06/01 10:51:58;;;;;;;763.90;700.70;;;;;;;;;;4974232;28;20045;-80
2021/06/01 10:54:40;;;;;;;747.30;683.83;;;;;;;;;;4982417;28;20696;-76
2021/06/01 10:57:07;;;;;;;744.97;681.60;;;;;;;;;;4974513;28;20079;-79
2021/06/01 11:02:23;;;;;;;773.28;708.92;;;;;;;;;;4979219;28;20147;-78
2021/06/01 11:05:05;;;;;;;751.85;688.97;;;;;;;;;;4971408;28;20054;-78
2021/06/01 11:08:00;;;;;;;777.33;713.67;;;;;;;;;;4983853;28;20042;-78
2021/06/01 11:10:38;;;;;;;995.05;916.30;;;;;;;;;;4981171;28;20026;-77
2021/06/01 11:13:05;;;;;;;941.67;866.78;;;;;;;;;;4972026;28;20161;-77
2021/06/01 11:15:32;;;;;;;890.53;818.95;;;;;;;;;;4973935;28;20365;-77
2021/06/01 11:18:18;;;;;;;875.60;804.78;;;;;;;;;;4962485;28;20433;-80
2021/06/01 11:21:05;;;;;;;912.92;839.42;;;;;;;;;;4965717;28;20026;-76
2021/06/01 11:23:43;;;;;;;935.58;860.90;;;;;;;;;;4959957;28;20514;-78
2021/06/01 11:34:39;;;;;;;814.90;749.42;;;;;;;;;;4958028;28;20038;-77
2021/06/01 11:37:24;;;;;;;774.00;710.80;;;;;;;;;;4962599;28;20065;-79
2021/06/01 11:42:48;;;;;;;777.30;713.67;;;;;;;;;;4963035;28;20027;-78
2021/06/01 11:45:14;;;;;;;766.58;703.47;;;;;;;;;;4959324;28;20065;-77
2021/06/01 11:48:13;;;;;;;794.00;729.70;;;;;;;;;;4962404;28;20077;-78
2021/06/01 11:51:00;;;;;;;775.95;712.63;;;;;;;;;;4957852;28;20126;-77
2021/06/01 11:53:26;;;;;;;786.35;722.70;;;;;;;;;;4959499;28;20474;-78
2021/06/01 11:56:00;;;;;;;803.92;739.63;;;;;;;;;;4955267;28;20080;-78
2021/06/01 12:04:02;;;;;;;790.22;726.33;;;;;;;;;;4959519;28;20045;-76
2021/06/01 12:12:08;;;;;;;826.08;761.22;;;;;;;;;;4962286;28;20089;-76
2021/06/01 12:17:49;;;;;;;809.85;745.08;;;;;;;;;;4955015;28;20484;-78
2021/06/01 12:20:15;;;;;;;797.00;732.65;;;;;;;;;;4957767;28;20500;-77
2021/06/01 12:22:41;;;;;;;835.20;767.67;;;;;;;;;;4963275;28;20110;-77
2021/06/01 12:25:10;;;;;;;805.40;740.03;;;;;;;;;;4959781;28;20047;-77
2021/06/01 12:28:02;;;;;;;811.35;745.13;;;;;;;;;;4963285;28;20023;-77
2021/06/01 12:33:14;;;;;;;807.28;741.72;;;;;;;;;;4964052;28;20087;-77
2021/06/01 12:36:19;;;;;;;800.15;735.10;;;;;;;;;;4956359;28;20027;-77
2021/06/01 12:44:18;;;;;;;1220.70;999.90;;;;;;;;;;4960866;28;20038;-78
2021/06/01 12:47:09;;;;;;;;;;;;;;;;;;4964560;28;20534;-76
2021/06/01 13:07:16;;;;;;;892.03;820.03;;;;;;;;;;4961865;28;20790;-75
2021/06/01 13:09:40;;;;;;;939.85;865.92;;;;;;;;;;4951563;28;20034;-78
2021/06/01 13:20:31;;;;;;;946.60;873.25;;;;;;;;;;4992005;28;20048;-76
2021/06/01 13:47:02;;;;;;;1128.38;999.90;;;;;;;;;;4991847;28;20041;-77
2021/06/01 13:49:36;;;;;;;1092.75;999.30;;;;;;;;;;5000683;28;20040;-76
2021/06/01 14:09:31;;;;;;;903.75;830.70;;;;;;;;;;4995394;28;20044;-79
2021/06/01 14:19:27;;;;;;;845.00;773.90;;;;;;;;;;4995337;28;20025;-75
2021/06/01 14:27:59;;;;;;;910.38;833.90;;;;;;;;;;4995806;28;20737;-77
2021/06/01 14:30:15;;;;;;;866.60;793.25;;;;;;;;;;4998398;28;20094;-77
2021/06/01 14:38:21;;;;;;;945.17;866.85;;;;;;;;;;4995345;28;20041;-77
2021/06/01 15:08:49;;;;;;;980.33;897.17;;;;;;;;;;5001766;28;20033;-76
2021/06/01 15:11:23;;;;;;;975.35;893.17;;;;;;;;;;5004020;28;20402;-78
2021/06/01 15:22:46;;;;;;;964.08;882.22;;;;;;;;;;4999218;28;20111;-77
2021/06/01 15:49:39;;;;;;;862.65;785.55;;;;;;;;;;4996495;28;20040;-76
2021/06/01 16:43:51;;;;;;;877.53;798.97;;;;;;;;;;4983328;28;20091;-78
2021/06/01 17:05:41;;;;;;;807.92;733.47;;;;;;;;;;4992888;28;20068;-78
2021/06/01 17:13:51;;;;;;;791.78;718.50;;;;;;;;;;4994746;28;20971;-79
2021/06/01 17:21:57;;;;;;;754.72;683.80;;;;;;;;;;4999344;28;20045;-79
2021/06/01 17:35:21;;;;;;;776.92;704.70;;;;;;;;;;5005557;28;20704;-79
2021/06/01 17:37:48;;;;;;;733.80;664.13;;;;;;;;;;4979031;28;20038;-78
2021/06/01 17:40:17;;;;;;;828.70;752.33;;;;;;;;;;4998526;28;20018;-78
2021/06/01 17:42:54;;;;;;;785.38;711.70;;;;;;;;;;4986839;28;20468;-78
2021/06/01 17:45:22;;;;;;;729.15;659.33;;;;;;;;;;4982584;28;20463;-80
2021/06/01 17:48:01;;;;;;;774.85;701.75;;;;;;;;;;4986363;28;20025;-79
2021/06/01 17:50:28;;;;;;;770.88;698.08;;;;;;;;;;4989559;28;20108;-80
2021/06/01 17:52:57;;;;;;;754.80;682.88;;;;;;;;;;4988886;28;20124;-78
2021/06/01 17:55:23;;;;;;;718.88;649.58;;;;;;;;;;4991332;28;20026;-80
2021/06/01 17:57:50;;;;;;;725.67;655.40;;;;;;;;;;4982740;28;20037;-82
2021/06/01 18:00:17;;;;;;;762.92;690.25;;;;;;;;;;4989069;28;20029;-78
2021/06/01 18:02:44;;;;;;;725.70;655.78;;;;;;;;;;4983071;28;20018;-78
2021/06/01 18:05:11;;;;;;;693.13;625.53;;;;;;;;;;4981571;28;20059;-78
2021/06/01 18:07:53;;;;;;;714.90;645.13;;;;;;;;;;4984136;28;20105;-79
2021/06/01 18:51:12;;;;;;;740.30;667.17;;;;;;;;;;4996220;28;20094;-79
2021/06/01 19:05:57;;;;;;;676.92;607.65;;;;;;;;;;4998558;28;20355;-75
2021/06/01 19:24:44;;;;;;;666.35;598.42;;;;;;;;;;4997316;28;20037;-76
2021/06/01 19:49:59;;;;;;;613.90;548.80;;;;;;;;;;5000270;28;20508;-78
2021/06/01 19:52:26;;;;;;;614.38;549.60;;;;;;;;;;4981028;28;20037;-76
2021/06/01 19:54:53;;;;;;;622.65;557.22;;;;;;;;;;4980516;28;20022;-76
2021/06/01 19:57:22;;;;;;;617.70;552.38;;;;;;;;;;4999643;28;20378;-76
2021/06/01 19:59:50;;;;;;;600.78;536.70;;;;;;;;;;4992656;28;20030;-76
2021/06/01 20:02:24;;;;;;;618.92;552.92;;;;;;;;;;4977326;28;20355;-76
2021/06/01 20:04:50;;;;;;;618.65;552.60;;;;;;;;;;4983991;28;20033;-77
2021/06/01 20:07:16;;;;;;;602.20;537.80;;;;;;;;;;4978702;28;20566;-80
2021/06/01 20:09:42;;;;;;;601.78;536.88;;;;;;;;;;4980406;28;20033;-77
2021/06/01 20:12:08;;;;;;;600.70;535.90;;;;;;;;;;4982671;28;20056;-76
2021/06/01 20:14:36;;;;;;;588.92;524.88;;;;;;;;;;4991166;28;20034;-77
2021/06/01 20:17:03;;;;;;;600.92;535.72;;;;;;;;;;4995325;28;20613;-78
2021/06/01 20:19:31;;;;;;;600.83;535.10;;;;;;;;;;4997619;28;20026;-77
2021/06/01 20:21:57;;;;;;;593.25;527.63;;;;;;;;;;4983982;28;20041;-76
2021/06/01 20:24:26;;;;;;;563.85;498.65;;;;;;;;;;4988698;28;20029;-77
2021/06/01 20:26:52;;;;;;;564.80;496.98;;;;;;;;;;4999848;28;20038;-78
2021/06/01 20:29:22;;;;;;;567.38;499.98;;;;;;;;;;4974861;28;20064;-78
2021/06/01 20:33:06;;;;;;;555.10;487.60;;;;;;;;;;4998024;28;20038;-78
2021/06/01 20:34:41;;;;;;;552.65;479.60;;;;;;;;;;5001058;28;21406;-77
2021/06/01 20:37:11;;;;;;;552.67;474.90;;;;;;;;;;4999185;28;20093;-77
2021/06/01 20:39:43;;;;;;;555.65;477.02;;;;;;;;;;4992212;28;20163;-78
2021/06/01 20:42:10;;;;;;;593.55;512.83;;;;;;;;;;4988220;28;20037;-77
2021/06/01 20:44:37;;;;;;;587.83;505.58;;;;;;;;;;4990657;28;20344;-77